sensor_id;sensor_type;location;lat;lon;timestamp;pressure;altitude;pressure_sealevel;temperature;humidity
10176;BME280;18221;38.704;0.152;2023-04-30T00:03:06;98762.75;;;23.86;41.06
10176;BME280;18221;38.704;0.152;2023-04-30T00:05:34;98763.50;;;23.93;41.17
10176;BME280;18221;38.704;0.152;2023-04-30T00:08:04;98765.91;;;24.01;40.70
10176;BME280;18221;38.704;0.152;2023-04-30T00:10:32;98750.22;;;24.03;40.66
10176;BME280;18221;38.704;0.152;2023-04-30T00:13:00;98746.53;;;23.98;40.82
10176;BME280;18221;38.704;0.152;2023-04-30T00:15:29;98745.66;;;24.15;40.11
10176;BME280;18221;38.704;0.152;2023-04-30T00:17:58;98739.53;;;24.08;39.77
10176;BME280;18221;38.704;0.152;2023-04-30T00:20:27;98742.34;;;24.13;39.75
10176;BME280;18221;38.704;0.152;2023-04-30T00:22:56;98746.63;;;24.21;39.55
10176;BME280;18221;38.704;0.152;2023-04-30T00:25:24;98736.00;;;24.19;39.65
10176;BME280;18221;38.704;0.152;2023-04-30T00:27:52;98735.63;;;24.16;39.19
10176;BME280;18221;38.704;0.152;2023-04-30T00:30:20;98740.81;;;24.17;39.01
10176;BME280;18221;38.704;0.152;2023-04-30T00:32:49;98734.22;;;24.13;38.92
10176;BME280;18221;38.704;0.152;2023-04-30T00:35:17;98735.63;;;24.16;38.17
10176;BME280;18221;38.704;0.152;2023-04-30T00:37:47;98727.25;;;24.17;37.67
10176;BME280;18221;38.704;0.152;2023-04-30T00:40:16;98728.56;;;24.15;37.48
10176;BME280;18221;38.704;0.152;2023-04-30T00:42:45;98723.09;;;24.03;37.64
10176;BME280;18221;38.704;0.152;2023-04-30T00:45:20;98727.88;;;24.19;37.34
10176;BME280;18221;38.704;0.152;2023-04-30T00:47:49;98713.81;;;24.11;37.25
10176;BME280;18221;38.704;0.152;2023-04-30T00:50:17;98713.09;;;24.15;37.07
10176;BME280;18221;38.704;0.152;2023-04-30T00:52:47;98713.63;;;23.94;36.88
10176;BME280;18221;38.704;0.152;2023-04-30T00:55:16;98713.16;;;23.85;37.14
10176;BME280;18221;38.704;0.152;2023-04-30T00:57:45;98711.66;;;24.01;36.84
10176;BME280;18221;38.704;0.152;2023-04-30T01:00:14;98707.84;;;24.02;36.66
10176;BME280;18221;38.704;0.152;2023-04-30T01:02:43;98713.28;;;23.90;36.92
10176;BME280;18221;38.704;0.152;2023-04-30T01:05:11;98718.44;;;23.92;36.94
10176;BME280;18221;38.704;0.152;2023-04-30T01:07:40;98719.63;;;23.84;37.14
10176;BME280;18221;38.704;0.152;2023-04-30T01:10:14;98710.81;;;24.01;36.88
10176;BME280;18221;38.704;0.152;2023-04-30T01:12:54;98711.97;;;23.93;37.10
10176;BME280;18221;38.704;0.152;2023-04-30T01:15:49;98711.31;;;24.09;36.59
10176;BME280;18221;38.704;0.152;2023-04-30T01:18:28;98712.97;;;24.10;36.61
10176;BME280;18221;38.704;0.152;2023-04-30T01:21:03;98733.06;;;23.91;37.09
10176;BME280;18221;38.704;0.152;2023-04-30T01:23:54;98724.00;;;23.85;37.30
10176;BME280;18221;38.704;0.152;2023-04-30T01:26:51;98717.09;;;23.71;37.37
10176;BME280;18221;38.704;0.152;2023-04-30T01:29:23;98714.66;;;23.81;37.04
10176;BME280;18221;38.704;0.152;2023-04-30T01:31:54;98716.44;;;23.87;36.94
10176;BME280;18221;38.704;0.152;2023-04-30T01:34:31;98710.09;;;24.05;37.00
10176;BME280;18221;38.704;0.152;2023-04-30T01:37:57;98718.41;;;24.10;36.82
10176;BME280;18221;38.704;0.152;2023-04-30T01:40:47;98715.25;;;23.83;37.60
10176;BME280;18221;38.704;0.152;2023-04-30T01:43:31;98708.06;;;23.77;37.26
10176;BME280;18221;38.704;0.152;2023-04-30T01:46:23;98707.59;;;23.92;37.03
10176;BME280;18221;38.704;0.152;2023-04-30T01:49:07;98708.38;;;23.81;37.04
10176;BME280;18221;38.704;0.152;2023-04-30T01:51:41;98709.78;;;23.72;37.60
10176;BME280;18221;38.704;0.152;2023-04-30T01:54:19;98703.28;;;23.73;37.37
10176;BME280;18221;38.704;0.152;2023-04-30T01:57:00;98707.53;;;23.69;37.32
10176;BME280;18221;38.704;0.152;2023-04-30T01:59:39;98705.94;;;23.79;37.76
10176;BME280;18221;38.704;0.152;2023-04-30T02:02:09;98704.88;;;23.51;38.59
10176;BME280;18221;38.704;0.152;2023-04-30T02:04:37;98707.47;;;23.57;39.07
10176;BME280;18221;38.704;0.152;2023-04-30T02:07:06;98707.00;;;23.49;40.12
10176;BME280;18221;38.704;0.152;2023-04-30T02:09:34;98699.47;;;23.51;40.40
10176;BME280;18221;38.704;0.152;2023-04-30T02:12:03;98700.31;;;23.33;41.00
10176;BME280;18221;38.704;0.152;2023-04-30T02:14:31;98702.50;;;23.43;40.64
10176;BME280;18221;38.704;0.152;2023-04-30T02:16:59;98704.38;;;23.42;40.32
10176;BME280;18221;38.704;0.152;2023-04-30T02:19:29;98704.16;;;23.44;40.12
10176;BME280;18221;38.704;0.152;2023-04-30T02:22:00;98706.69;;;23.57;39.74
10176;BME280;18221;38.704;0.152;2023-04-30T02:24:28;98707.47;;;23.57;39.49
10176;BME280;18221;38.704;0.152;2023-04-30T02:26:56;98715.59;;;23.46;40.23
10176;BME280;18221;38.704;0.152;2023-04-30T02:29:25;98706.06;;;23.55;39.66
10176;BME280;18221;38.704;0.152;2023-04-30T02:31:57;98708.44;;;23.63;39.24
10176;BME280;18221;38.704;0.152;2023-04-30T02:34:27;98708.75;;;23.43;39.38
10176;BME280;18221;38.704;0.152;2023-04-30T02:36:55;98708.50;;;23.45;39.20
10176;BME280;18221;38.704;0.152;2023-04-30T02:39:24;98707.63;;;23.62;38.92
10176;BME280;18221;38.704;0.152;2023-04-30T02:41:52;98716.00;;;23.61;39.19
10176;BME280;18221;38.704;0.152;2023-04-30T02:44:20;98715.28;;;23.54;39.21
10176;BME280;18221;38.704;0.152;2023-04-30T02:46:49;98711.31;;;23.68;38.74
10176;BME280;18221;38.704;0.152;2023-04-30T02:49:17;98710.03;;;23.41;39.32
10176;BME280;18221;38.704;0.152;2023-04-30T02:51:49;98716.72;;;23.38;39.49
10176;BME280;18221;38.704;0.152;2023-04-30T02:54:20;98710.94;;;23.64;38.79
10176;BME280;18221;38.704;0.152;2023-04-30T02:56:49;98718.94;;;23.59;38.94
10176;BME280;18221;38.704;0.152;2023-04-30T02:59:17;98730.84;;;23.88;38.18
10176;BME280;18221;38.704;0.152;2023-04-30T03:01:45;98728.13;;;23.88;38.30
10176;BME280;18221;38.704;0.152;2023-04-30T03:04:14;98726.91;;;23.84;38.31
10176;BME280;18221;38.704;0.152;2023-04-30T03:06:45;98731.63;;;23.88;38.60
10176;BME280;18221;38.704;0.152;2023-04-30T03:09:15;98728.25;;;23.93;38.44
10176;BME280;18221;38.704;0.152;2023-04-30T03:11:43;98729.88;;;23.82;38.48
10176;BME280;18221;38.704;0.152;2023-04-30T03:14:11;98732.41;;;23.66;39.09
10176;BME280;18221;38.704;0.152;2023-04-30T03:16:40;98742.22;;;23.78;38.74
10176;BME280;18221;38.704;0.152;2023-04-30T03:19:09;98745.03;;;23.72;38.69
10176;BME280;18221;38.704;0.152;2023-04-30T03:21:37;98748.22;;;23.69;38.78
10176;BME280;18221;38.704;0.152;2023-04-30T03:24:06;98746.13;;;23.82;38.68
10176;BME280;18221;38.704;0.152;2023-04-30T03:26:36;98748.75;;;23.89;38.45
10176;BME280;18221;38.704;0.152;2023-04-30T03:29:04;98750.72;;;23.82;38.35
10176;BME280;18221;38.704;0.152;2023-04-30T03:31:32;98752.28;;;23.60;38.45
10176;BME280;18221;38.704;0.152;2023-04-30T03:34:00;98758.13;;;23.75;38.27
10176;BME280;18221;38.704;0.152;2023-04-30T03:36:29;98756.72;;;23.72;37.98
10176;BME280;18221;38.704;0.152;2023-04-30T03:38:57;98761.97;;;23.67;38.28
10176;BME280;18221;38.704;0.152;2023-04-30T03:41:26;98767.56;;;23.72;37.90
10176;BME280;18221;38.704;0.152;2023-04-30T03:43:56;98767.19;;;23.69;37.88
10176;BME280;18221;38.704;0.152;2023-04-30T03:46:24;98774.69;;;23.85;37.65
10176;BME280;18221;38.704;0.152;2023-04-30T03:48:52;98771.00;;;23.79;38.11
10176;BME280;18221;38.704;0.152;2023-04-30T03:51:22;98770.31;;;23.54;38.47
10176;BME280;18221;38.704;0.152;2023-04-30T03:53:50;98777.88;;;23.64;38.33
10176;BME280;18221;38.704;0.152;2023-04-30T03:56:19;98771.34;;;23.53;38.31
10176;BME280;18221;38.704;0.152;2023-04-30T03:58:48;98776.97;;;23.52;38.42
10176;BME280;18221;38.704;0.152;2023-04-30T04:01:19;98777.59;;;23.54;38.75
10176;BME280;18221;38.704;0.152;2023-04-30T04:03:47;98778.34;;;23.61;38.76
10176;BME280;18221;38.704;0.152;2023-04-30T04:06:15;98780.16;;;23.67;39.02
10176;BME280;18221;38.704;0.152;2023-04-30T04:08:43;98782.63;;;23.68;38.99
10176;BME280;18221;38.704;0.152;2023-04-30T04:11:12;98779.44;;;23.71;38.60
10176;BME280;18221;38.704;0.152;2023-04-30T04:13:41;98776.59;;;23.66;38.56
10176;BME280;18221;38.704;0.152;2023-04-30T04:16:09;98774.72;;;23.67;38.00
10176;BME280;18221;38.704;0.152;2023-04-30T04:18:39;98774.19;;;23.58;37.93
10176;BME280;18221;38.704;0.152;2023-04-30T04:21:08;98778.47;;;23.66;38.48
10176;BME280;18221;38.704;0.152;2023-04-30T04:23:37;98771.31;;;23.71;38.64
10176;BME280;18221;38.704;0.152;2023-04-30T04:26:05;98760.78;;;23.63;38.30
10176;BME280;18221;38.704;0.152;2023-04-30T04:28:33;98762.34;;;23.41;38.14
10176;BME280;18221;38.704;0.152;2023-04-30T04:31:02;98765.94;;;23.35;38.28
10176;BME280;18221;38.704;0.152;2023-04-30T04:33:30;98758.25;;;22.96;38.94
10176;BME280;18221;38.704;0.152;2023-04-30T04:36:04;98764.34;;;22.91;39.34
10176;BME280;18221;38.704;0.152;2023-04-30T04:38:33;98771.81;;;23.14;39.33
10176;BME280;18221;38.704;0.152;2023-04-30T04:41:02;98766.69;;;23.06;40.35
10176;BME280;18221;38.704;0.152;2023-04-30T04:43:30;98766.56;;;22.76;41.89
10176;BME280;18221;38.704;0.152;2023-04-30T04:45:59;98773.66;;;22.77;42.54
10176;BME280;18221;38.704;0.152;2023-04-30T04:48:39;98776.47;;;22.89;42.63
10176;BME280;18221;38.704;0.152;2023-04-30T04:51:09;98781.03;;;22.88;43.15
10176;BME280;18221;38.704;0.152;2023-04-30T04:53:38;98781.75;;;22.77;43.66
10176;BME280;18221;38.704;0.152;2023-04-30T04:56:06;98782.66;;;22.46;41.70
10176;BME280;18221;38.704;0.152;2023-04-30T04:58:35;98784.84;;;22.56;40.70
10176;BME280;18221;38.704;0.152;2023-04-30T05:01:06;98786.59;;;22.75;39.06
10176;BME280;18221;38.704;0.152;2023-04-30T05:03:35;98798.94;;;23.07;38.27
10176;BME280;18221;38.704;0.152;2023-04-30T05:06:04;98806.47;;;23.23;37.78
10176;BME280;18221;38.704;0.152;2023-04-30T05:08:34;98805.00;;;23.46;37.95
10176;BME280;18221;38.704;0.152;2023-04-30T05:11:04;98808.00;;;23.56;37.45
10176;BME280;18221;38.704;0.152;2023-04-30T05:13:37;98807.31;;;23.60;37.00
10176;BME280;18221;38.704;0.152;2023-04-30T05:16:06;98806.03;;;23.63;36.88
10176;BME280;18221;38.704;0.152;2023-04-30T05:18:37;98814.31;;;23.68;36.61
10176;BME280;18221;38.704;0.152;2023-04-30T05:21:06;98812.22;;;23.70;36.76
10176;BME280;18221;38.704;0.152;2023-04-30T05:23:36;98808.84;;;23.86;36.86
10176;BME280;18221;38.704;0.152;2023-04-30T05:26:05;98813.00;;;23.88;36.93
10176;BME280;18221;38.704;0.152;2023-04-30T05:28:33;98824.34;;;23.97;36.99
10176;BME280;18221;38.704;0.152;2023-04-30T05:31:03;98829.91;;;24.02;37.45
10176;BME280;18221;38.704;0.152;2023-04-30T05:33:31;98838.28;;;24.01;37.81
10176;BME280;18221;38.704;0.152;2023-04-30T05:35:59;98847.03;;;24.03;38.13
10176;BME280;18221;38.704;0.152;2023-04-30T05:38:28;98848.78;;;23.97;38.74
10176;BME280;18221;38.704;0.152;2023-04-30T05:41:02;98860.59;;;24.03;38.60
10176;BME280;18221;38.704;0.152;2023-04-30T05:43:31;98852.91;;;24.00;38.67
10176;BME280;18221;38.704;0.152;2023-04-30T05:45:59;98861.16;;;23.93;38.64
10176;BME280;18221;38.704;0.152;2023-04-30T05:48:28;98861.00;;;23.88;39.30
10176;BME280;18221;38.704;0.152;2023-04-30T05:50:56;98860.75;;;23.89;38.79
10176;BME280;18221;38.704;0.152;2023-04-30T05:53:25;98861.22;;;23.86;39.16
10176;BME280;18221;38.704;0.152;2023-04-30T05:55:55;98865.72;;;23.92;38.90
10176;BME280;18221;38.704;0.152;2023-04-30T05:58:25;98868.78;;;23.96;38.98
10176;BME280;18221;38.704;0.152;2023-04-30T06:00:53;98872.00;;;23.93;39.16
10176;BME280;18221;38.704;0.152;2023-04-30T06:03:22;98871.50;;;23.96;38.93
10176;BME280;18221;38.704;0.152;2023-04-30T06:05:56;98874.41;;;24.01;38.74
10176;BME280;18221;38.704;0.152;2023-04-30T06:08:24;98867.75;;;23.97;38.91
10176;BME280;18221;38.704;0.152;2023-04-30T06:10:53;98870.72;;;23.95;38.83
10176;BME280;18221;38.704;0.152;2023-04-30T06:13:21;98859.38;;;23.98;38.86
10176;BME280;18221;38.704;0.152;2023-04-30T06:15:52;98864.00;;;23.98;38.98
10176;BME280;18221;38.704;0.152;2023-04-30T06:18:20;98855.63;;;24.00;38.91
10176;BME280;18221;38.704;0.152;2023-04-30T06:20:48;98866.84;;;24.03;38.87
10176;BME280;18221;38.704;0.152;2023-04-30T06:23:17;98873.09;;;24.04;38.81
10176;BME280;18221;38.704;0.152;2023-04-30T06:25:46;98871.38;;;24.09;38.69
10176;BME280;18221;38.704;0.152;2023-04-30T06:28:15;98876.97;;;24.14;38.38
10176;BME280;18221;38.704;0.152;2023-04-30T06:30:43;98877.09;;;24.19;38.74
10176;BME280;18221;38.704;0.152;2023-04-30T06:33:14;98878.41;;;24.28;38.97
10176;BME280;18221;38.704;0.152;2023-04-30T06:35:42;98875.13;;;24.38;39.14
10176;BME280;18221;38.704;0.152;2023-04-30T06:38:11;98875.44;;;24.48;38.96
10176;BME280;18221;38.704;0.152;2023-04-30T06:40:40;98878.59;;;24.56;38.70
10176;BME280;18221;38.704;0.152;2023-04-30T06:43:08;98871.81;;;24.66;39.19
10176;BME280;18221;38.704;0.152;2023-04-30T06:45:37;98876.88;;;24.74;39.10
10176;BME280;18221;38.704;0.152;2023-04-30T06:48:06;98875.59;;;24.76;39.18
10176;BME280;18221;38.704;0.152;2023-04-30T06:50:36;98879.94;;;24.77;39.74
10176;BME280;18221;38.704;0.152;2023-04-30T06:53:11;98875.28;;;24.84;40.27
10176;BME280;18221;38.704;0.152;2023-04-30T06:55:41;98874.69;;;24.94;40.40
10176;BME280;18221;38.704;0.152;2023-04-30T06:58:09;98877.66;;;25.04;40.02
10176;BME280;18221;38.704;0.152;2023-04-30T07:00:37;98868.19;;;25.06;40.30
10176;BME280;18221;38.704;0.152;2023-04-30T07:03:05;98870.44;;;25.09;40.89
10176;BME280;18221;38.704;0.152;2023-04-30T07:05:35;98864.78;;;25.11;41.48
10176;BME280;18221;38.704;0.152;2023-04-30T07:08:05;98876.50;;;25.23;40.78
10176;BME280;18221;38.704;0.152;2023-04-30T07:10:33;98873.63;;;25.06;41.74
10176;BME280;18221;38.704;0.152;2023-04-30T07:13:01;98867.75;;;25.09;42.07
10176;BME280;18221;38.704;0.152;2023-04-30T07:15:29;98862.16;;;25.16;41.94
10176;BME280;18221;38.704;0.152;2023-04-30T07:17:58;98860.75;;;25.37;40.79
10176;BME280;18221;38.704;0.152;2023-04-30T07:20:26;98864.19;;;25.44;40.29
10176;BME280;18221;38.704;0.152;2023-04-30T07:22:57;98859.34;;;25.57;39.74
10176;BME280;18221;38.704;0.152;2023-04-30T07:25:25;98865.94;;;25.61;39.03
10176;BME280;18221;38.704;0.152;2023-04-30T07:27:54;98865.78;;;25.80;39.01
10176;BME280;18221;38.704;0.152;2023-04-30T07:30:29;98879.78;;;26.00;38.65
10176;BME280;18221;38.704;0.152;2023-04-30T07:32:57;98880.13;;;26.43;37.84
10176;BME280;18221;38.704;0.152;2023-04-30T07:35:26;98877.94;;;26.73;36.52
10176;BME280;18221;38.704;0.152;2023-04-30T07:37:55;98881.19;;;27.04;34.88
10176;BME280;18221;38.704;0.152;2023-04-30T07:40:24;98879.59;;;27.79;33.76
10176;BME280;18221;38.704;0.152;2023-04-30T07:42:53;98873.81;;;28.46;32.66
10176;BME280;18221;38.704;0.152;2023-04-30T07:45:21;98871.66;;;29.06;30.56
10176;BME280;18221;38.704;0.152;2023-04-30T07:47:52;98882.38;;;29.55;29.35
10176;BME280;18221;38.704;0.152;2023-04-30T07:50:20;98881.44;;;30.58;28.24
10176;BME280;18221;38.704;0.152;2023-04-30T07:52:49;98887.78;;;31.19;26.95
10176;BME280;18221;38.704;0.152;2023-04-30T07:55:19;98886.59;;;31.81;26.01
10176;BME280;18221;38.704;0.152;2023-04-30T07:57:47;98892.94;;;32.35;24.81
10176;BME280;18221;38.704;0.152;2023-04-30T08:00:15;98892.09;;;32.83;23.86
10176;BME280;18221;38.704;0.152;2023-04-30T08:02:44;98892.31;;;33.26;23.12
10176;BME280;18221;38.704;0.152;2023-04-30T08:05:13;98891.56;;;32.81;23.52
10176;BME280;18221;38.704;0.152;2023-04-30T08:07:42;98885.00;;;33.40;23.38
10176;BME280;18221;38.704;0.152;2023-04-30T08:10:10;98892.03;;;33.51;23.38
10176;BME280;18221;38.704;0.152;2023-04-30T08:12:40;98899.06;;;33.67;23.40
10176;BME280;18221;38.704;0.152;2023-04-30T08:15:09;98900.06;;;32.85;23.79
10176;BME280;18221;38.704;0.152;2023-04-30T08:17:38;98896.72;;;32.44;25.58
10176;BME280;18221;38.704;0.152;2023-04-30T08:20:07;98898.13;;;31.72;27.36
10176;BME280;18221;38.704;0.152;2023-04-30T08:22:36;98907.53;;;31.36;27.77
10176;BME280;18221;38.704;0.152;2023-04-30T08:25:05;98906.47;;;30.10;28.96
10176;BME280;18221;38.704;0.152;2023-04-30T08:27:33;98902.28;;;29.87;29.97
10176;BME280;18221;38.704;0.152;2023-04-30T08:30:04;98909.84;;;28.96;33.85
10176;BME280;18221;38.704;0.152;2023-04-30T08:32:34;98914.94;;;28.61;34.15
10176;BME280;18221;38.704;0.152;2023-04-30T08:35:03;98919.78;;;28.54;34.67
10176;BME280;18221;38.704;0.152;2023-04-30T08:37:33;98915.44;;;28.58;34.36
10176;BME280;18221;38.704;0.152;2023-04-30T08:40:01;98915.56;;;28.68;33.57
10176;BME280;18221;38.704;0.152;2023-04-30T08:42:35;98909.97;;;28.58;34.24
10176;BME280;18221;38.704;0.152;2023-04-30T08:45:10;98919.50;;;28.77;33.73
10176;BME280;18221;38.704;0.152;2023-04-30T08:47:38;98924.63;;;28.47;33.38
10176;BME280;18221;38.704;0.152;2023-04-30T08:50:08;98931.13;;;28.62;33.31
10176;BME280;18221;38.704;0.152;2023-04-30T08:52:41;98927.34;;;28.68;33.08
10176;BME280;18221;38.704;0.152;2023-04-30T08:55:10;98923.59;;;28.53;32.68
10176;BME280;18221;38.704;0.152;2023-04-30T08:57:48;98920.91;;;28.31;33.42
10176;BME280;18221;38.704;0.152;2023-04-30T09:00:18;98926.91;;;28.55;33.35
10176;BME280;18221;38.704;0.152;2023-04-30T09:02:48;98927.03;;;28.65;31.98
10176;BME280;18221;38.704;0.152;2023-04-30T09:05:16;98927.88;;;28.44;32.96
10176;BME280;18221;38.704;0.152;2023-04-30T09:07:45;98933.78;;;28.36;33.32
10176;BME280;18221;38.704;0.152;2023-04-30T09:10:18;98930.59;;;28.44;32.29
10176;BME280;18221;38.704;0.152;2023-04-30T09:12:59;98937.41;;;28.41;32.41
10176;BME280;18221;38.704;0.152;2023-04-30T09:15:32;98942.13;;;28.24;32.77
10176;BME280;18221;38.704;0.152;2023-04-30T09:18:10;98940.59;;;28.33;32.37
10176;BME280;18221;38.704;0.152;2023-04-30T09:20:55;98946.34;;;28.37;31.86
10176;BME280;18221;38.704;0.152;2023-04-30T09:23:24;98939.44;;;28.29;32.25
10176;BME280;18221;38.704;0.152;2023-04-30T09:25:56;98949.22;;;28.03;32.33
10176;BME280;18221;38.704;0.152;2023-04-30T09:28:24;98942.91;;;27.81;31.82
10176;BME280;18221;38.704;0.152;2023-04-30T09:30:57;98947.28;;;27.82;33.76
10176;BME280;18221;38.704;0.152;2023-04-30T09:33:26;98946.50;;;28.03;34.10
10176;BME280;18221;38.704;0.152;2023-04-30T09:35:57;98946.56;;;27.70;34.64
10176;BME280;18221;38.704;0.152;2023-04-30T09:38:35;98944.94;;;27.91;34.91
10176;BME280;18221;38.704;0.152;2023-04-30T09:41:03;98950.97;;;27.71;36.14
10176;BME280;18221;38.704;0.152;2023-04-30T09:43:43;98942.34;;;27.79;35.29
10176;BME280;18221;38.704;0.152;2023-04-30T09:46:18;98950.53;;;27.79;34.47
10176;BME280;18221;38.704;0.152;2023-04-30T09:48:46;98952.09;;;27.75;33.92
10176;BME280;18221;38.704;0.152;2023-04-30T09:51:18;98957.41;;;27.65;35.46
10176;BME280;18221;38.704;0.152;2023-04-30T09:53:47;98951.53;;;27.73;34.35
10176;BME280;18221;38.704;0.152;2023-04-30T09:56:21;98942.03;;;27.97;34.00
10176;BME280;18221;38.704;0.152;2023-04-30T09:58:54;98947.50;;;27.97;34.05
10176;BME280;18221;38.704;0.152;2023-04-30T10:01:26;98947.72;;;27.96;34.31
10176;BME280;18221;38.704;0.152;2023-04-30T10:03:56;98958.19;;;27.82;35.06
10176;BME280;18221;38.704;0.152;2023-04-30T10:06:26;98950.97;;;27.93;35.67
10176;BME280;18221;38.704;0.152;2023-04-30T10:09:05;98945.28;;;27.94;34.72
10176;BME280;18221;38.704;0.152;2023-04-30T10:11:37;98942.22;;;27.91;34.23
10176;BME280;18221;38.704;0.152;2023-04-30T10:14:12;98945.56;;;27.98;33.56
10176;BME280;18221;38.704;0.152;2023-04-30T10:16:54;98938.72;;;27.95;34.61
10176;BME280;18221;38.704;0.152;2023-04-30T10:19:27;98943.19;;;28.01;34.25
10176;BME280;18221;38.704;0.152;2023-04-30T10:21:58;98938.72;;;27.95;34.40
10176;BME280;18221;38.704;0.152;2023-04-30T10:24:29;98935.84;;;27.85;34.22
10176;BME280;18221;38.704;0.152;2023-04-30T10:27:01;98938.78;;;27.79;34.59
10176;BME280;18221;38.704;0.152;2023-04-30T10:29:30;98936.66;;;27.64;35.41
10176;BME280;18221;38.704;0.152;2023-04-30T10:32:00;98932.59;;;27.67;35.22
10176;BME280;18221;38.704;0.152;2023-04-30T10:34:45;98925.06;;;27.74;34.06
10176;BME280;18221;38.704;0.152;2023-04-30T10:37:29;98925.31;;;27.72;34.35
10176;BME280;18221;38.704;0.152;2023-04-30T10:39:58;98920.19;;;27.76;34.12
10176;BME280;18221;38.704;0.152;2023-04-30T10:42:27;98922.03;;;27.70;34.77
10176;BME280;18221;38.704;0.152;2023-04-30T10:44:56;98923.84;;;27.65;34.11
10176;BME280;18221;38.704;0.152;2023-04-30T10:47:30;98917.25;;;27.82;33.79
10176;BME280;18221;38.704;0.152;2023-04-30T10:50:03;98912.53;;;28.16;33.15
10176;BME280;18221;38.704;0.152;2023-04-30T10:52:31;98909.06;;;28.21;33.00
10176;BME280;18221;38.704;0.152;2023-04-30T10:55:05;98909.06;;;28.21;32.25
10176;BME280;18221;38.704;0.152;2023-04-30T10:57:40;98904.00;;;28.34;31.23
10176;BME280;18221;38.704;0.152;2023-04-30T11:00:24;98907.03;;;28.38;31.23
10176;BME280;18221;38.704;0.152;2023-04-30T11:03:02;98902.88;;;28.57;31.17
10176;BME280;18221;38.704;0.152;2023-04-30T11:05:36;98893.44;;;28.64;31.36
10176;BME280;18221;38.704;0.152;2023-04-30T11:08:10;98888.19;;;28.63;31.63
10176;BME280;18221;38.704;0.152;2023-04-30T11:10:57;98879.88;;;28.53;31.59
10176;BME280;18221;38.704;0.152;2023-04-30T11:13:39;98886.41;;;28.47;31.73
10176;BME280;18221;38.704;0.152;2023-04-30T11:16:08;98888.75;;;28.38;30.93
10176;BME280;18221;38.704;0.152;2023-04-30T11:18:44;98885.16;;;28.33;31.69
10176;BME280;18221;38.704;0.152;2023-04-30T11:21:13;98875.13;;;28.16;32.32
10176;BME280;18221;38.704;0.152;2023-04-30T11:23:42;98871.59;;;28.43;32.26
10176;BME280;18221;38.704;0.152;2023-04-30T11:26:11;98877.19;;;28.58;31.76
10176;BME280;18221;38.704;0.152;2023-04-30T11:28:51;98874.34;;;28.21;32.51
10176;BME280;18221;38.704;0.152;2023-04-30T11:31:20;98866.25;;;28.26;32.84
10176;BME280;18221;38.704;0.152;2023-04-30T11:33:55;98863.03;;;28.34;32.24
10176;BME280;18221;38.704;0.152;2023-04-30T11:36:29;98864.59;;;28.52;31.93
10176;BME280;18221;38.704;0.152;2023-04-30T11:39:00;98870.63;;;28.54;33.04
10176;BME280;18221;38.704;0.152;2023-04-30T11:41:39;98868.41;;;28.51;33.61
10176;BME280;18221;38.704;0.152;2023-04-30T11:44:22;98861.34;;;28.28;33.64
10176;BME280;18221;38.704;0.152;2023-04-30T11:46:51;98861.44;;;28.11;34.44
10176;BME280;18221;38.704;0.152;2023-04-30T11:49:22;98856.06;;;28.22;36.27
10176;BME280;18221;38.704;0.152;2023-04-30T11:51:50;98850.28;;;28.45;36.10
10176;BME280;18221;38.704;0.152;2023-04-30T11:54:19;98849.69;;;28.38;34.30
10176;BME280;18221;38.704;0.152;2023-04-30T11:56:48;98859.59;;;28.44;34.33
10176;BME280;18221;38.704;0.152;2023-04-30T11:59:18;98856.06;;;28.22;34.86
10176;BME280;18221;38.704;0.152;2023-04-30T12:01:47;98844.44;;;28.04;35.64
10176;BME280;18221;38.704;0.152;2023-04-30T12:04:16;98841.81;;;28.41;35.75
10176;BME280;18221;38.704;0.152;2023-04-30T12:06:46;98837.16;;;28.68;34.98
10176;BME280;18221;38.704;0.152;2023-04-30T12:09:22;98841.34;;;28.81;33.28
10176;BME280;18221;38.704;0.152;2023-04-30T12:11:50;98843.00;;;29.19;32.95
10176;BME280;18221;38.704;0.152;2023-04-30T12:14:24;98840.91;;;29.31;32.33
10176;BME280;18221;38.704;0.152;2023-04-30T12:16:52;98847.41;;;29.20;32.61
10176;BME280;18221;38.704;0.152;2023-04-30T12:19:22;98846.66;;;29.29;32.62
10176;BME280;18221;38.704;0.152;2023-04-30T12:21:55;98845.31;;;28.95;32.81
10176;BME280;18221;38.704;0.152;2023-04-30T12:24:27;98840.81;;;28.79;33.99
10176;BME280;18221;38.704;0.152;2023-04-30T12:26:59;98842.50;;;28.85;32.55
10176;BME280;18221;38.704;0.152;2023-04-30T12:29:30;98849.47;;;28.71;33.70
10176;BME280;18221;38.704;0.152;2023-04-30T12:31:59;98852.94;;;28.61;33.53
10176;BME280;18221;38.704;0.152;2023-04-30T12:34:29;98850.94;;;28.52;34.30
10176;BME280;18221;38.704;0.152;2023-04-30T12:37:01;98849.88;;;28.58;34.34
10176;BME280;18221;38.704;0.152;2023-04-30T12:39:34;98848.31;;;28.35;34.62
10176;BME280;18221;38.704;0.152;2023-04-30T12:42:03;98849.09;;;28.31;34.11
10176;BME280;18221;38.704;0.152;2023-04-30T12:44:41;98843.50;;;28.47;33.92
10176;BME280;18221;38.704;0.152;2023-04-30T12:47:10;98850.09;;;28.51;33.78
10176;BME280;18221;38.704;0.152;2023-04-30T12:49:40;98852.31;;;28.54;33.03
10176;BME280;18221;38.704;0.152;2023-04-30T12:52:12;98842.28;;;28.33;34.24
10176;BME280;18221;38.704;0.152;2023-04-30T12:54:41;98855.81;;;28.50;33.90
10176;BME280;18221;38.704;0.152;2023-04-30T12:57:11;98849.53;;;28.49;34.13
10176;BME280;18221;38.704;0.152;2023-04-30T12:59:56;98843.41;;;28.64;33.61
10176;BME280;18221;38.704;0.152;2023-04-30T13:02:27;98853.31;;;28.70;33.65
10176;BME280;18221;38.704;0.152;2023-04-30T13:04:57;98846.69;;;28.66;34.04
10176;BME280;18221;38.704;0.152;2023-04-30T13:07:36;98844.09;;;28.81;33.35
10176;BME280;18221;38.704;0.152;2023-04-30T13:10:07;98842.59;;;28.63;33.72
10176;BME280;18221;38.704;0.152;2023-04-30T13:12:35;98840.38;;;28.34;34.55
10176;BME280;18221;38.704;0.152;2023-04-30T13:15:05;98832.28;;;28.44;33.87
10176;BME280;18221;38.704;0.152;2023-04-30T13:17:33;98833.59;;;28.68;34.07
10176;BME280;18221;38.704;0.152;2023-04-30T13:20:02;98833.91;;;28.71;33.44
10176;BME280;18221;38.704;0.152;2023-04-30T13:22:33;98836.75;;;28.55;33.51